Time;durP1;ratioP1;P1;durP2;ratioP2;P2;SDS_P1;SDS_P2;PMS_P1;PMS_P2;Temp;Humidity;BMP_temperature;BMP_pressure;BME280_temperature;BME280_humidity;BME280_pressure;Samples;Min_cycle;Max_cycle;Signal;HPM_P1;HPM_P2
2022/01/01 00:02:14;;;;;;;29.02;17.80;;;11.90;99.90;;;;;;4971181;28;90018;-43
2022/01/01 00:04:40;;;;;;;29.08;16.38;;;12.00;99.90;;;;;;4971384;28;89937;-41
2022/01/01 00:07:06;;;;;;;35.95;17.20;;;12.00;99.90;;;;;;4961235;28;87678;-40
2022/01/01 00:09:31;;;;;;;28.85;17.77;;;12.00;99.90;;;;;;4958483;28;87426;-41
2022/01/01 00:11:57;;;;;;;30.00;18.00;;;12.00;99.90;;;;;;4958528;28;89205;-43
2022/01/01 00:14:22;;;;;;;37.70;17.92;;;11.90;99.90;;;;;;4957656;28;89484;-39
2022/01/01 00:16:48;;;;;;;29.50;18.38;;;11.90;99.90;;;;;;4958461;28;87575;-43
2022/01/01 00:19:13;;;;;;;40.58;20.17;;;11.90;99.90;;;;;;4958024;28;87919;-40
2022/01/01 00:21:41;;;;;;;33.03;18.95;;;11.90;99.90;;;;;;4958429;28;90254;-40
2022/01/01 00:24:07;;;;;;;42.25;22.45;;;11.80;99.90;;;;;;4958191;28;89707;-39
2022/01/01 00:26:32;;;;;;;34.08;19.42;;;11.90;99.90;;;;;;4957941;28;87600;-43
2022/01/01 00:28:58;;;;;;;35.72;21.17;;;11.90;99.90;;;;;;4958331;28;87610;-41
2022/01/01 00:31:25;;;;;;;40.45;22.23;;;11.90;99.90;;;;;;4957615;28;91911;-38
2022/01/01 00:33:50;;;;;;;36.63;21.67;;;11.90;99.90;;;;;;4957667;28;89702;-39
2022/01/01 00:36:16;;;;;;;46.95;23.77;;;11.90;99.90;;;;;;4957659;28;87534;-45
2022/01/01 00:38:42;;;;;;;35.38;22.58;;;11.90;99.90;;;;;;4958313;28;87770;-38
2022/01/01 00:41:07;;;;;;;47.55;22.35;;;11.90;99.90;;;;;;4957897;28;90337;-41
2022/01/01 00:43:33;;;;;;;42.55;24.63;;;11.90;99.90;;;;;;4957645;28;88623;-41
2022/01/01 00:45:58;;;;;;;44.30;23.80;;;12.00;99.90;;;;;;4958060;28;88122;-42
2022/01/01 00:48:24;;;;;;;40.40;23.67;;;12.00;99.90;;;;;;4957777;28;88404;-44
2022/01/01 00:50:49;;;;;;;45.45;25.25;;;12.00;99.90;;;;;;4957727;28;89502;-41
2022/01/01 00:53:15;;;;;;;41.45;24.55;;;12.00;99.90;;;;;;4957561;28;89109;-40
2022/01/01 00:55:40;;;;;;;46.70;24.83;;;11.90;99.90;;;;;;4956697;28;88031;-42
2022/01/01 00:58:07;;;;;;;45.83;25.02;;;11.90;99.90;;;;;;4957888;28;88130;-41
2022/01/01 01:00:32;;;;;;;46.88;27.95;;;11.90;99.90;;;;;;4957273;28;90015;-42
2022/01/01 01:02:58;;;;;;;44.83;29.58;;;11.90;99.90;;;;;;4957174;28;89545;-39
2022/01/01 01:05:23;;;;;;;48.45;28.98;;;11.90;99.90;;;;;;4957028;28;87558;-37
2022/01/01 01:07:49;;;;;;;41.53;26.30;;;12.00;99.90;;;;;;4957915;28;87856;-43
2022/01/01 01:10:15;;;;;;;57.65;32.53;;;11.90;99.90;;;;;;4956712;28;90306;-39
2022/01/01 01:12:44;;;;;;;41.20;28.77;;;11.90;99.90;;;;;;4957340;28;88077;-44
2022/01/01 01:15:17;;;;;;;45.45;28.63;;;12.00;99.90;;;;;;4957358;28;87918;-40
2022/01/01 01:17:48;;;;;;;48.30;30.45;;;12.00;99.90;;;;;;4956435;28;87805;-40
2022/01/01 01:20:15;;;;;;;54.05;33.58;;;11.90;99.90;;;;;;4956937;28;90277;-36
2022/01/01 01:22:40;;;;;;;58.40;32.83;;;11.90;99.90;;;;;;4956946;28;89803;-40
2022/01/01 01:25:07;;;;;;;50.70;33.38;;;11.90;99.90;;;;;;4957352;28;87874;-40
2022/01/01 01:27:35;;;;;;;52.33;34.40;;;11.90;99.90;;;;;;4956573;28;88569;-38
2022/01/01 01:30:01;;;;;;;56.60;35.67;;;11.90;99.90;;;;;;4956844;28;90503;-44
2022/01/01 01:32:26;;;;;;;62.55;36.08;;;11.90;99.90;;;;;;4956505;28;89694;-39
2022/01/01 01:34:52;;;;;;;57.78;36.75;;;11.90;99.90;;;;;;4957069;28;87645;-44
2022/01/01 01:37:18;;;;;;;55.10;34.53;;;11.80;99.90;;;;;;4956837;28;87459;-42
2022/01/01 01:39:44;;;;;;;61.58;38.70;;;11.80;99.90;;;;;;4956848;28;90172;-42
2022/01/01 01:42:09;;;;;;;54.53;36.65;;;11.70;99.90;;;;;;4956656;28;89639;-42
2022/01/01 01:44:42;;;;;;;60.67;39.05;;;11.80;99.90;;;;;;4956749;28;88386;-38
2022/01/01 01:47:15;;;;;;;63.28;38.45;;;11.80;99.90;;;;;;4957187;28;87814;-39
2022/01/01 01:49:41;;;;;;;67.10;39.97;;;11.70;99.90;;;;;;4956967;28;90271;-45
2022/01/01 01:52:07;;;;;;;69.78;38.72;;;11.70;99.90;;;;;;4956641;28;89991;-36
2022/01/01 01:54:34;;;;;;;56.95;39.03;;;11.70;99.90;;;;;;4956073;28;87563;-40
2022/01/01 01:56:59;;;;;;;67.38;41.85;;;11.70;99.90;;;;;;4956759;28;87500;-39
2022/01/01 01:59:25;;;;;;;66.50;41.10;;;11.60;99.90;;;;;;4956423;28;90175;-38
2022/01/01 02:01:52;;;;;;;54.42;37.47;;;11.60;99.90;;;;;;4956220;28;89521;-40
2022/01/01 02:04:17;;;;;;;58.72;35.78;;;11.70;99.90;;;;;;4956482;28;88029;-38
2022/01/01 02:06:44;;;;;;;55.00;35.25;;;11.60;99.90;;;;;;4956901;28;87603;-39
2022/01/01 02:09:11;;;;;;;57.03;35.58;;;11.60;99.90;;;;;;4956792;28;90178;-42
2022/01/01 02:11:41;;;;;;;51.88;34.38;;;11.60;99.90;;;;;;4956367;28;89730;-40
2022/01/01 02:14:17;;;;;;;53.22;34.22;;;11.60;99.90;;;;;;4955218;28;88522;-38
2022/01/01 02:19:24;;;;;;;51.30;36.67;;;11.60;99.90;;;;;;4956160;28;90236;-38
2022/01/01 02:21:56;;;;;;;67.97;36.65;;;11.50;99.90;;;;;;4956093;28;89749;-38
2022/01/01 02:24:21;;;;;;;53.05;34.53;;;11.50;99.90;;;;;;4956609;28;87532;-44
2022/01/01 02:26:47;;;;;;;61.38;37.22;;;11.50;99.90;;;;;;4956346;28;88454;-39
2022/01/01 02:29:12;;;;;;;57.80;37.03;;;11.40;99.90;;;;;;4955402;28;90375;-42
2022/01/01 02:31:38;;;;;;;69.47;37.38;;;11.50;99.90;;;;;;4956062;28;90286;-39
2022/01/01 02:34:09;;;;;;;58.55;36.08;;;11.40;99.90;;;;;;4955922;28;87517;-41
2022/01/01 02:36:40;;;;;;;66.63;38.33;;;11.40;99.90;;;;;;4956323;28;88069;-40
2022/01/01 02:39:19;;;;;;;73.32;41.72;;;11.40;99.90;;;;;;4955844;28;90761;-39
2022/01/01 02:41:47;;;;;;;79.30;43.22;;;11.40;99.90;;;;;;4955958;28;88368;-34
2022/01/01 02:44:13;;;;;;;71.15;42.85;;;11.40;99.90;;;;;;4956097;28;87484;-41
2022/01/01 02:46:39;;;;;;;61.58;44.75;;;11.40;99.90;;;;;;4955829;28;88054;-37
2022/01/01 02:49:05;;;;;;;72.88;48.63;;;11.40;99.90;;;;;;4955996;28;89468;-38
2022/01/01 02:51:32;;;;;;;71.82;47.90;;;11.50;99.90;;;;;;4955494;28;89457;-37
2022/01/01 02:53:57;;;;;;;72.50;51.50;;;11.50;99.90;;;;;;4955543;28;90426;-36
2022/01/01 02:56:24;;;;;;;79.70;55.55;;;11.50;99.90;;;;;;4955757;28;87503;-41
2022/01/01 02:58:50;;;;;;;84.68;55.20;;;11.60;99.90;;;;;;4955664;28;89191;-43
2022/01/01 03:01:15;;;;;;;80.40;57.95;;;11.60;99.90;;;;;;4955647;28;89716;-39
2022/01/01 03:03:42;;;;;;;86.35;58.67;;;11.60;99.90;;;;;;4955645;28;88201;-37
2022/01/01 03:06:08;;;;;;;94.78;60.92;;;11.50;99.90;;;;;;4955871;28;88649;-37
2022/01/01 03:08:34;;;;;;;95.65;60.97;;;11.50;99.90;;;;;;4955368;28;89087;-36
2022/01/01 03:11:02;;;;;;;87.25;60.95;;;11.60;99.90;;;;;;4955857;28;89765;-38
2022/01/01 03:13:29;;;;;;;86.57;62.25;;;11.50;99.90;;;;;;4955751;28;87864;-40
2022/01/01 03:15:54;;;;;;;86.35;60.75;;;11.50;99.90;;;;;;4955572;28;88432;-39
2022/01/01 03:18:20;;;;;;;84.68;62.58;;;11.50;99.90;;;;;;4955275;28;89870;-42
2022/01/01 03:20:45;;;;;;;92.07;66.25;;;11.40;99.90;;;;;;4955471;28;89642;-40
2022/01/01 03:23:11;;;;;;;95.68;67.93;;;11.50;99.90;;;;;;4955522;28;88690;-39
2022/01/01 03:25:37;;;;;;;86.88;61.95;;;11.40;99.90;;;;;;4955380;28;87605;-40
2022/01/01 03:28:03;;;;;;;104.80;67.47;;;11.40;99.90;;;;;;4955594;28;90138;-38
2022/01/01 03:30:28;;;;;;;92.70;64.25;;;11.40;99.90;;;;;;4955130;28;89479;-43
2022/01/01 03:32:54;;;;;;;95.63;66.18;;;11.40;99.90;;;;;;4955350;28;87954;-38
2022/01/01 03:35:19;;;;;;;94.00;65.47;;;11.40;99.90;;;;;;4955629;28;87648;-39
2022/01/01 03:37:45;;;;;;;111.63;67.53;;;11.40;99.90;;;;;;4955489;28;91663;-41
2022/01/01 03:40:11;;;;;;;110.43;72.47;;;11.40;99.90;;;;;;4955387;28;90131;-38
2022/01/01 03:42:36;;;;;;;96.85;67.55;;;11.50;99.90;;;;;;4957972;28;87984;-43
2022/01/01 03:45:03;;;;;;;98.10;71.25;;;11.50;99.90;;;;;;4958908;28;87527;-41
2022/01/01 03:47:30;;;;;;;95.20;67.30;;;11.50;99.90;;;;;;4958063;28;89961;-44
2022/01/01 03:49:56;;;;;;;90.97;65.10;;;11.40;99.90;;;;;;4958725;28;88599;-43
2022/01/01 03:52:22;;;;;;;99.10;68.43;;;11.40;99.90;;;;;;4958464;28;87594;-44
2022/01/01 03:54:47;;;;;;;107.30;73.47;;;11.40;99.90;;;;;;4958357;28;91621;-41
2022/01/01 03:57:13;;;;;;;98.03;68.72;;;11.40;99.90;;;;;;4958662;28;90579;-42
2022/01/01 03:59:38;;;;;;;103.55;73.05;;;11.40;99.90;;;;;;4958108;28;88702;-37
2022/01/01 04:02:04;;;;;;;96.13;71.28;;;11.40;99.90;;;;;;4958190;28;88067;-43
2022/01/01 04:04:30;;;;;;;103.30;73.25;;;11.40;99.90;;;;;;4957904;28;87642;-41
2022/01/01 04:06:55;;;;;;;97.35;71.60;;;11.30;99.90;;;;;;4958362;28;89066;-37
2022/01/01 04:09:21;;;;;;;104.78;77.82;;;11.40;99.90;;;;;;4958367;28;89581;-37
2022/01/01 04:11:47;;;;;;;101.43;75.00;;;11.40;99.90;;;;;;4958284;28;87960;-38
2022/01/01 04:14:15;;;;;;;101.55;76.05;;;11.40;99.90;;;;;;4957891;28;87611;-40
2022/01/01 04:16:42;;;;;;;97.68;74.22;;;11.40;99.90;;;;;;4957644;28;90334;-40
2022/01/01 04:19:08;;;;;;;107.82;72.07;;;11.40;99.90;;;;;;4958139;28;89720;-37
2022/01/01 04:21:34;;;;;;;105.03;76.57;;;11.40;99.90;;;;;;4958220;28;88137;-38
2022/01/01 04:24:00;;;;;;;100.97;77.07;;;11.40;99.90;;;;;;4958037;28;88331;-42
2022/01/01 04:26:25;;;;;;;107.25;72.55;;;11.40;99.90;;;;;;4957676;28;90172;-42
2022/01/01 04:28:51;;;;;;;104.82;73.10;;;11.40;99.90;;;;;;4957870;28;89809;-38
2022/01/01 04:31:17;;;;;;;112.38;71.78;;;11.40;99.90;;;;;;4957932;28;87531;-39
2022/01/01 04:33:43;;;;;;;108.60;70.75;;;11.40;99.90;;;;;;4958048;28;88205;-36
2022/01/01 04:36:09;;;;;;;102.15;73.93;;;11.50;99.90;;;;;;4957685;28;90054;-35
2022/01/01 04:38:42;;;;;;;96.07;69.88;;;11.40;99.90;;;;;;4957713;28;89472;-38
2022/01/01 04:41:17;;;;;;;104.60;71.10;;;11.50;99.90;;;;;;4957833;28;87359;-39
2022/01/01 04:43:44;;;;;;;85.47;65.05;;;11.50;99.90;;;;;;4957447;28;87533;-39
2022/01/01 04:46:12;;;;;;;94.68;67.53;;;11.50;99.90;;;;;;4957707;28;90283;-39
2022/01/01 04:48:40;;;;;;;94.75;67.78;;;11.40;99.90;;;;;;4957051;28;89408;-39
2022/01/01 04:51:10;;;;;;;88.97;66.93;;;11.40;99.90;;;;;;4958160;28;88071;-40
2022/01/01 04:53:36;;;;;;;100.45;66.53;;;11.40;99.90;;;;;;4957569;28;88750;-38
2022/01/01 04:56:06;;;;;;;95.25;65.15;;;11.50;99.90;;;;;;4956955;28;90270;-40
2022/01/01 04:58:32;;;;;;;91.93;63.90;;;11.40;99.90;;;;;;4957545;28;91203;-44
2022/01/01 05:00:57;;;;;;;85.32;63.22;;;11.50;99.90;;;;;;4957591;28;88247;-40
2022/01/01 05:03:23;;;;;;;85.70;63.83;;;11.50;99.90;;;;;;4957457;28;87435;-40
2022/01/01 05:05:48;;;;;;;81.88;63.20;;;11.50;99.90;;;;;;4955784;28;92666;-42
2022/01/01 05:08:14;;;;;;;91.82;60.63;;;11.50;99.90;;;;;;4957460;28;89048;-38
2022/01/01 05:10:40;;;;;;;88.53;61.83;;;11.50;99.90;;;;;;4957368;28;88673;-39
2022/01/01 05:13:05;;;;;;;81.30;61.20;;;11.50;99.90;;;;;;4957046;28;87642;-42
2022/01/01 05:15:31;;;;;;;89.55;61.83;;;11.50;99.90;;;;;;4957145;28;90245;-38
2022/01/01 05:17:57;;;;;;;95.07;64.07;;;11.50;99.90;;;;;;4957428;28;90289;-41
2022/01/01 05:20:22;;;;;;;85.20;61.00;;;11.50;99.90;;;;;;4957085;28;87483;-36
2022/01/01 05:22:48;;;;;;;85.22;59.75;;;11.50;99.90;;;;;;4956995;28;87774;-38
2022/01/01 05:25:13;;;;;;;86.70;58.10;;;11.60;99.90;;;;;;4956916;28;89847;-40
2022/01/01 05:27:40;;;;;;;83.35;57.45;;;11.50;99.90;;;;;;4956703;28;92386;-38
2022/01/01 05:30:07;;;;;;;95.50;57.92;;;11.60;99.90;;;;;;4955431;28;88201;-39
2022/01/01 05:32:33;;;;;;;84.97;57.70;;;11.50;99.90;;;;;;4956455;28;87678;-40
2022/01/01 05:34:59;;;;;;;76.80;54.97;;;11.50;99.90;;;;;;4956625;28;88832;-39
2022/01/01 05:37:25;;;;;;;75.78;52.20;;;11.50;99.90;;;;;;4957024;28;89500;-42
2022/01/01 05:39:50;;;;;;;80.30;55.88;;;11.60;99.90;;;;;;4956761;28;88146;-38
2022/01/01 05:42:16;;;;;;;76.68;56.20;;;11.50;99.90;;;;;;4956999;28;87982;-42
2022/01/01 05:44:42;;;;;;;82.13;55.85;;;11.60;99.90;;;;;;4956644;28;90257;-39
2022/01/01 05:47:07;;;;;;;76.57;54.85;;;11.50;99.90;;;;;;4957142;28;89212;-35
2022/01/01 05:49:33;;;;;;;71.80;51.35;;;11.50;99.90;;;;;;4956226;28;87417;-40
2022/01/01 05:51:59;;;;;;;73.07;50.30;;;11.60;99.90;;;;;;4957179;28;87631;-37
2022/01/01 05:54:24;;;;;;;82.18;51.63;;;11.60;99.90;;;;;;4956353;28;89652;-38
2022/01/01 05:56:50;;;;;;;75.95;50.10;;;11.70;99.90;;;;;;4956565;28;89593;-39
2022/01/01 05:59:15;;;;;;;68.85;43.88;;;11.70;99.90;;;;;;4956723;28;87511;-42
2022/01/01 06:01:41;;;;;;;62.58;40.97;;;11.70;99.90;;;;;;4956100;28;87671;-43
2022/01/01 06:04:06;;;;;;;69.35;41.80;;;11.70;99.90;;;;;;4955852;28;90395;-39
2022/01/01 06:06:32;;;;;;;60.88;41.45;;;11.70;99.90;;;;;;4956176;28;88569;-37
2022/01/01 06:08:58;;;;;;;67.05;40.45;;;11.60;99.90;;;;;;4956367;28;87444;-39
2022/01/01 06:11:23;;;;;;;65.30;41.15;;;11.60;99.90;;;;;;4956580;28;88398;-35
2022/01/01 06:13:49;;;;;;;60.20;40.45;;;11.60;99.90;;;;;;4955629;28;91570;-39
2022/01/01 06:16:15;;;;;;;62.08;38.85;;;11.50;99.90;;;;;;4956726;28;89252;-39
2022/01/01 06:18:40;;;;;;;62.20;37.97;;;11.50;99.90;;;;;;4956210;28;87544;-41
2022/01/01 06:21:06;;;;;;;63.78;39.38;;;11.50;99.90;;;;;;4956277;28;87486;-39
2022/01/01 06:23:33;;;;;;;65.53;39.20;;;11.50;99.90;;;;;;4956349;28;90199;-40
2022/01/01 06:25:58;;;;;;;56.55;35.83;;;11.50;99.90;;;;;;4956429;28;89631;-38
2022/01/01 06:28:24;;;;;;;56.25;34.03;;;11.50;99.90;;;;;;4956327;28;87519;-38
2022/01/01 06:30:50;;;;;;;57.05;36.70;;;11.60;99.90;;;;;;4956296;28;89218;-39
2022/01/01 06:33:17;;;;;;;51.35;33.92;;;11.60;99.90;;;;;;4956273;28;89007;-38
2022/01/01 06:35:44;;;;;;;58.10;32.83;;;11.60;99.90;;;;;;4955981;28;89455;-40
2022/01/01 06:38:10;;;;;;;55.33;31.83;;;11.50;99.90;;;;;;4956255;28;87650;-39
2022/01/01 06:40:39;;;;;;;57.42;33.38;;;11.50;99.90;;;;;;4955931;28;88215;-42
2022/01/01 06:43:05;;;;;;;47.25;30.25;;;11.50;99.90;;;;;;4955848;28;90996;-43
2022/01/01 06:45:31;;;;;;;49.15;29.70;;;11.50;99.90;;;;;;4955776;28;89809;-42
2022/01/01 06:47:56;;;;;;;53.85;31.67;;;11.50;99.90;;;;;;4956155;28;87637;-41
2022/01/01 06:50:22;;;;;;;46.33;29.88;;;11.50;99.90;;;;;;4956080;28;87528;-38
2022/01/01 06:52:48;;;;;;;50.80;26.48;;;11.50;99.90;;;;;;4955908;28;89202;-38
2022/01/01 06:55:14;;;;;;;50.80;29.00;;;11.50;99.90;;;;;;4955437;28;89412;-41
2022/01/01 06:57:41;;;;;;;54.92;31.17;;;11.50;99.90;;;;;;4955675;28;87893;-39
2022/01/01 07:00:07;;;;;;;51.13;28.65;;;11.40;99.90;;;;;;4956049;28;87872;-37
2022/01/01 07:02:55;;;;;;;61.35;30.63;;;11.40;99.90;;;;;;4955471;28;91903;-42
2022/01/01 07:05:20;;;;;;;37.53;26.60;;;11.40;99.90;;;;;;4956018;28;89714;-43
2022/01/01 07:07:46;;;;;;;51.10;26.98;;;11.40;99.90;;;;;;4955841;28;88038;-37
2022/01/01 07:10:12;;;;;;;45.40;25.48;;;11.40;99.90;;;;;;4955748;28;87643;-40
2022/01/01 07:12:38;;;;;;;41.33;23.98;;;11.50;99.90;;;;;;4955471;28;90681;-37
2022/01/01 07:15:05;;;;;;;41.78;25.90;;;11.50;99.90;;;;;;4955008;28;89228;-41
2022/01/01 07:17:31;;;;;;;47.58;26.13;;;11.50;99.90;;;;;;4958482;28;88943;-42
2022/01/01 07:19:56;;;;;;;40.63;25.05;;;11.50;99.90;;;;;;4959011;28;87610;-41
2022/01/01 07:22:22;;;;;;;45.25;24.40;;;11.50;99.90;;;;;;4959209;28;90177;-35
2022/01/01 07:24:49;;;;;;;45.90;25.00;;;11.50;99.90;;;;;;4958795;28;88563;-38
2022/01/01 07:27:15;;;;;;;48.13;24.88;;;11.50;99.90;;;;;;4959188;28;88334;-41
2022/01/01 07:29:41;;;;;;;43.85;25.17;;;11.50;99.90;;;;;;4958752;28;87672;-38
2022/01/01 07:32:08;;;;;;;36.10;23.05;;;11.50;99.90;;;;;;4959061;28;90194;-37
2022/01/01 07:34:34;;;;;;;47.90;24.88;;;11.50;99.90;;;;;;4958593;28;89650;-47
2022/01/01 07:36:59;;;;;;;43.28;24.25;;;11.50;99.90;;;;;;4958900;28;87602;-39
2022/01/01 07:39:25;;;;;;;40.80;24.88;;;11.50;99.90;;;;;;4959003;28;87651;-39
2022/01/01 07:41:50;;;;;;;48.45;25.60;;;11.50;99.90;;;;;;4958370;28;90260;-41
2022/01/01 07:44:16;;;;;;;58.85;24.67;;;11.60;99.90;;;;;;4958841;28;88623;-41
2022/01/01 07:46:42;;;;;;;38.75;22.70;;;11.60;99.90;;;;;;4958522;28;87913;-40
2022/01/01 07:49:07;;;;;;;45.83;25.73;;;11.50;99.90;;;;;;4958492;28;87987;-38
2022/01/01 07:51:33;;;;;;;40.55;22.95;;;11.60;99.90;;;;;;4958598;28;90166;-39
2022/01/01 07:53:59;;;;;;;46.38;25.33;;;11.60;99.90;;;;;;4958166;28;89493;-39
2022/01/01 07:56:25;;;;;;;40.05;24.85;;;11.50;99.90;;;;;;4958856;28;87707;-40
2022/01/01 07:58:50;;;;;;;36.33;22.83;;;11.50;99.90;;;;;;4958663;28;87913;-40
2022/01/01 08:01:16;;;;;;;48.63;23.88;;;11.60;99.90;;;;;;4957928;28;90265;-43
2022/01/01 08:03:42;;;;;;;44.30;25.42;;;11.60;99.90;;;;;;4958030;28;90111;-41
2022/01/01 08:06:07;;;;;;;49.55;27.90;;;11.60;99.90;;;;;;4957947;28;87550;-39
2022/01/01 08:08:33;;;;;;;44.05;26.38;;;11.60;99.90;;;;;;4915249;28;87658;-38
2022/01/01 08:10:59;;;;;;;42.03;26.20;;;11.60;99.90;;;;;;4973055;28;90149;-35
2022/01/01 08:13:25;;;;;;;42.83;25.98;;;11.60;99.90;;;;;;4967451;28;88629;-42
2022/01/01 08:15:55;;;;;;;38.33;24.55;;;11.60;99.90;;;;;;4967897;28;89311;-42
2022/01/01 08:18:21;;;;;;;38.80;26.75;;;11.60;99.90;;;;;;4977908;28;87642;-39
2022/01/01 08:20:47;;;;;;;46.60;27.75;;;11.60;99.90;;;;;;4977548;28;90248;-42
2022/01/01 08:23:14;;;;;;;48.92;27.33;;;11.60;99.90;;;;;;4974717;28;89211;-38
2022/01/01 08:25:40;;;;;;;53.72;28.05;;;11.60;99.90;;;;;;4967949;28;87521;-43
2022/01/01 08:28:07;;;;;;;41.47;27.13;;;11.70;99.90;;;;;;4974744;28;87654;-40
2022/01/01 08:30:34;;;;;;;50.08;29.10;;;11.70;99.90;;;;;;4969140;28;90102;-38
2022/01/01 08:33:01;;;;;;;48.83;29.52;;;11.70;99.90;;;;;;4973595;28;89959;-39
2022/01/01 08:35:31;;;;;;;44.60;28.75;;;11.70;99.90;;;;;;4974548;28;88597;-41
2022/01/01 08:37:58;;;;;;;43.25;29.80;;;11.70;99.90;;;;;;4960004;28;87895;-40
2022/01/01 08:40:25;;;;;;;50.17;30.80;;;11.80;99.90;;;;;;4955077;28;90000;-40
2022/01/01 08:42:50;;;;;;;51.50;29.08;;;11.80;99.90;;;;;;4954771;28;90020;-40
2022/01/01 08:45:16;;;;;;;53.75;33.03;;;11.80;99.90;;;;;;4954793;28;88021;-43
2022/01/01 08:47:42;;;;;;;50.75;31.77;;;11.80;99.90;;;;;;4955227;28;87527;-37
2022/01/01 08:50:09;;;;;;;52.63;32.00;;;11.80;99.90;;;;;;4954561;28;89934;-40
2022/01/01 08:52:34;;;;;;;49.22;32.42;;;11.80;99.90;;;;;;4971990;28;93101;-41
2022/01/01 08:55:01;;;;;;;60.45;34.60;;;11.90;99.90;;;;;;4973959;28;88323;-42
2022/01/01 08:57:26;;;;;;;59.05;34.60;;;11.80;99.90;;;;;;4974874;28;87536;-40
2022/01/01 08:59:53;;;;;;;65.75;34.45;;;11.80;99.90;;;;;;4973417;28;88867;-44
2022/01/01 09:02:19;;;;;;;57.42;34.85;;;11.80;99.90;;;;;;4974401;28;90425;-37
2022/01/01 09:04:45;;;;;;;57.05;31.98;;;11.90;99.90;;;;;;4973797;28;87908;-47
2022/01/01 09:07:12;;;;;;;51.20;32.20;;;11.90;99.90;;;;;;4974691;28;87459;-42
2022/01/01 09:09:38;;;;;;;51.95;31.63;;;11.90;99.90;;;;;;4974044;28;90187;-41
2022/01/01 09:12:05;;;;;;;47.92;29.00;;;11.90;99.90;;;;;;4973155;28;89226;-36
2022/01/01 09:14:31;;;;;;;53.63;30.92;;;11.90;99.90;;;;;;4973707;28;89220;-44
2022/01/01 09:16:56;;;;;;;48.50;31.40;;;11.90;99.90;;;;;;4974504;28;87847;-39
2022/01/01 09:19:22;;;;;;;49.47;30.65;;;12.00;99.90;;;;;;4972725;28;90043;-39
2022/01/01 09:21:47;;;;;;;52.97;31.55;;;12.00;99.90;;;;;;4973967;28;89927;-42
2022/01/01 09:24:13;;;;;;;53.50;29.05;;;12.00;99.90;;;;;;4974721;28;87636;-41
2022/01/01 09:26:38;;;;;;;44.92;31.13;;;12.00;99.90;;;;;;4971682;28;88576;-41
2022/01/01 09:29:04;;;;;;;53.85;31.70;;;12.00;99.90;;;;;;4974390;28;90009;-40
2022/01/01 09:31:31;;;;;;;44.92;29.23;;;12.00;99.90;;;;;;4973805;28;90040;-37
2022/01/01 09:33:57;;;;;;;40.05;28.63;;;12.10;99.90;;;;;;4973850;28;87505;-35
2022/01/01 09:36:22;;;;;;;45.55;27.65;;;12.10;99.90;;;;;;4974449;28;88790;-38
2022/01/01 09:38:49;;;;;;;43.50;28.42;;;12.20;99.90;;;;;;4972927;28;90125;-41
2022/01/01 09:41:15;;;;;;;40.35;27.38;;;12.30;99.90;;;;;;4974073;28;89791;-39
2022/01/01 09:43:42;;;;;;;39.65;29.00;;;12.20;99.90;;;;;;4970719;28;87900;-43
2022/01/01 09:46:12;;;;;;;48.05;27.92;;;12.20;99.90;;;;;;4958582;28;88528;-36
2022/01/01 09:48:38;;;;;;;35.85;25.48;;;12.20;99.90;;;;;;4954329;28;88759;-38
2022/01/01 09:51:04;;;;;;;41.83;27.25;;;12.30;99.90;;;;;;4954030;28;89401;-40
2022/01/01 09:53:31;;;;;;;31.73;25.17;;;12.30;99.90;;;;;;4954699;28;88505;-41
2022/01/01 09:56:00;;;;;;;40.45;26.13;;;12.30;99.90;;;;;;4966445;28;88728;-43
2022/01/01 09:58:32;;;;;;;33.85;23.15;;;12.30;99.90;;;;;;4966335;28;90502;-45
2022/01/01 10:00:59;;;;;;;41.88;22.83;;;12.40;99.90;;;;;;4955036;28;89770;-40
2022/01/01 10:03:40;;;;;;;30.98;20.50;;;12.40;99.90;;;;;;4958745;28;89374;-42
2022/01/01 10:06:14;;;;;;;33.55;22.08;;;12.40;99.90;;;;;;4955282;28;88397;-41
2022/01/01 10:08:45;;;;;;;29.42;20.90;;;12.40;99.90;;;;;;4943644;28;90178;-40
2022/01/01 10:11:15;;;;;;;30.75;18.08;;;12.50;99.90;;;;;;4945191;28;89560;-43
2022/01/01 10:13:41;;;;;;;31.67;19.42;;;12.50;99.90;;;;;;4946326;28;87561;-41
2022/01/01 10:16:09;;;;;;;25.52;19.30;;;12.60;99.90;;;;;;4945146;28;88833;-40
2022/01/01 10:18:54;;;;;;;27.58;17.80;;;12.60;99.90;;;;;;4953317;28;89177;-42
2022/01/01 10:21:22;;;;;;;22.48;18.10;;;12.70;99.90;;;;;;4944755;28;89690;-45
2022/01/01 10:23:51;;;;;;;27.55;19.00;;;12.70;99.90;;;;;;4944944;28;88989;-39
2022/01/01 10:29:14;;;;;;;32.85;18.00;;;12.70;99.90;;;;;;4944062;28;90491;-42
2022/01/01 10:31:56;;;;;;;22.95;16.30;;;12.80;99.90;;;;;;4944672;28;89793;-44
2022/01/01 10:34:25;;;;;;;25.35;16.58;;;12.80;99.90;;;;;;4952190;28;87845;-43
2022/01/01 10:36:52;;;;;;;25.45;17.02;;;12.80;99.90;;;;;;4944819;28;88041;-44
2022/01/01 10:39:18;;;;;;;29.73;17.58;;;12.80;99.90;;;;;;4946328;28;90421;-42
2022/01/01 10:42:06;;;;;;;24.52;17.05;;;12.80;99.90;;;;;;4960692;28;88582;-43
2022/01/01 10:44:34;;;;;;;26.75;15.18;;;12.80;99.90;;;;;;4944259;28;88844;-46
2022/01/01 10:47:06;;;;;;;33.05;16.30;;;12.80;99.90;;;;;;4943760;28;88627;-42
2022/01/01 10:54:37;;;;;;;25.45;13.95;;;12.80;99.90;;;;;;4922811;28;88374;-37
2022/01/01 10:57:07;;;;;;;21.83;13.52;;;12.90;99.90;;;;;;4924415;28;87888;-34
2022/01/01 10:59:37;;;;;;;22.75;13.18;;;12.80;99.90;;;;;;4923785;28;90307;-36
2022/01/01 11:02:06;;;;;;;23.55;14.13;;;12.90;99.90;;;;;;4924032;28;89945;-33
2022/01/01 11:04:33;;;;;;;15.77;13.77;;;12.90;99.90;;;;;;4924020;28;88454;-36
2022/01/01 11:07:00;;;;;;;17.75;13.48;;;12.90;99.90;;;;;;4923964;28;87682;-35
2022/01/01 11:09:26;;;;;;;15.20;12.05;;;12.90;99.90;;;;;;4923469;28;89767;-35
2022/01/01 11:11:57;;;;;;;22.40;12.98;;;13.00;99.90;;;;;;4905439;28;88772;-36
2022/01/01 11:14:24;;;;;;;22.42;13.02;;;13.00;99.90;;;;;;4923364;28;88552;-34
2022/01/01 11:16:51;;;;;;;23.90;12.82;;;13.00;99.90;;;;;;4923173;28;88802;-34
2022/01/01 11:19:17;;;;;;;18.38;12.48;;;13.00;99.90;;;;;;4857698;28;90918;-33
2022/01/01 11:21:44;;;;;;;26.02;12.02;;;13.00;99.90;;;;;;4915488;28;89811;-36
2022/01/01 11:24:11;;;;;;;19.05;11.45;;;13.10;99.90;;;;;;4923642;28;87916;-38
2022/01/01 11:26:37;;;;;;;17.98;11.40;;;13.10;99.90;;;;;;4922551;28;88645;-45
2022/01/01 11:29:02;;;;;;;15.63;9.75;;;13.10;99.90;;;;;;4922856;28;90116;-41
2022/01/01 11:31:28;;;;;;;13.23;9.48;;;13.10;99.90;;;;;;4924294;28;89479;-40
2022/01/01 11:34:00;;;;;;;21.77;11.07;;;13.00;99.90;;;;;;4924128;28;88292;-44
2022/01/01 11:36:29;;;;;;;15.27;9.98;;;13.00;99.90;;;;;;4879787;28;88029;-43
2022/01/01 11:38:54;;;;;;;15.50;9.75;;;13.10;99.90;;;;;;4906092;28;90127;-41
2022/01/01 11:41:21;;;;;;;21.30;10.05;;;13.10;99.90;;;;;;4924418;28;89287;-41
2022/01/01 11:43:55;;;;;;;19.42;10.60;;;13.10;99.90;;;;;;4923808;28;88647;-41
2022/01/01 11:46:33;;;;;;;13.35;9.15;;;13.10;99.90;;;;;;4923150;28;87608;-41
2022/01/01 11:49:03;;;;;;;16.08;8.65;;;13.10;99.90;;;;;;4922936;28;90484;-40
2022/01/01 11:51:36;;;;;;;13.50;9.18;;;13.00;99.90;;;;;;4924250;28;89989;-46
2022/01/01 11:54:24;;;;;;;14.05;8.85;;;13.10;99.90;;;;;;4913562;28;88159;-42
2022/01/01 11:56:50;;;;;;;16.67;9.88;;;13.00;99.90;;;;;;4922424;28;88471;-40
2022/01/01 11:59:30;;;;;;;18.25;9.07;;;13.00;99.90;;;;;;4923281;28;90239;-41
2022/01/01 12:02:04;;;;;;;14.18;8.73;;;13.00;99.90;;;;;;4915690;28;89802;-40
2022/01/01 12:04:37;;;;;;;14.43;9.27;;;13.00;99.90;;;;;;4923429;28;89617;-42
2022/01/01 12:07:21;;;;;;;17.67;9.38;;;13.00;99.90;;;;;;4911302;28;87629;-42
2022/01/01 12:10:05;;;;;;;23.27;10.82;;;12.90;99.90;;;;;;4925900;28;89908;-40
2022/01/01 12:12:47;;;;;;;11.98;9.43;;;13.00;99.90;;;;;;4925660;28;88869;-42
2022/01/01 12:15:24;;;;;;;17.80;9.95;;;13.00;99.90;;;;;;4926886;28;89105;-45
2022/01/01 12:18:03;;;;;;;13.18;8.93;;;13.10;99.90;;;;;;4926404;28;87832;-45
2022/01/01 12:20:35;;;;;;;17.85;9.10;;;13.00;99.90;;;;;;4926476;28;90660;-41
2022/01/01 12:23:04;;;;;;;18.05;9.45;;;13.00;99.90;;;;;;4926336;28;89940;-44
2022/01/01 12:25:32;;;;;;;10.95;9.43;;;13.00;99.90;;;;;;4927149;28;87580;-42
2022/01/01 12:28:05;;;;;;;18.85;9.63;;;13.00;99.90;;;;;;4926093;28;88440;-39
2022/01/01 12:30:38;;;;;;;15.40;8.15;;;13.00;99.90;;;;;;4925908;28;89223;-45
2022/01/01 12:33:05;;;;;;;15.63;9.98;;;13.00;99.90;;;;;;4926418;28;89549;-41
2022/01/01 12:35:44;;;;;;;11.40;7.97;;;13.00;99.90;;;;;;4926088;28;89328;-42
2022/01/01 12:38:22;;;;;;;11.30;7.68;;;13.10;99.90;;;;;;4926231;28;88568;-42
2022/01/01 12:41:07;;;;;;;11.00;9.18;;;13.10;99.90;;;;;;4925607;28;90272;-42